Time;durP1;ratioP1;P1;durP2;ratioP2;P2;SDS_P1;SDS_P2;PMS_P1;PMS_P2;Temp;Humidity;BMP_temperature;BMP_pressure;BME280_temperature;BME280_humidity;BME280_pressure;Samples;Min_cycle;Max_cycle;Signal;HPM_P1;HPM_P2
2022/07/02 00:00:02;;;;;;;4.10;2.00;;;20.00;58.10;;;22.52;44.92;102037.56;5092051;28;20199;-64
2022/07/02 00:02:36;;;;;;;2.30;2.10;;;20.00;58.10;;;22.51;45.34;102033.22;5092113;28;20232;-64
2022/07/02 00:05:06;;;;;;;2.47;2.10;;;20.00;58.40;;;22.57;44.90;102029.69;5092085;28;20235;-64
2022/07/02 00:07:34;;;;;;;4.00;2.40;;;20.00;58.30;;;22.61;44.54;102030.91;5091636;28;20192;-65
2022/07/02 00:10:02;;;;;;;2.03;1.90;;;20.00;57.90;;;22.65;44.61;102037.50;5107592;28;20657;-63
2022/07/02 00:12:30;;;;;;;4.37;2.30;;;20.00;58.00;;;22.70;44.73;102034.94;5089982;28;20212;-63
2022/07/02 00:15:00;;;;;;;3.67;2.13;;;20.10;58.30;;;22.78;44.26;102036.50;5091951;28;20558;-64
2022/07/02 00:17:27;;;;;;;2.90;1.80;;;20.10;58.10;;;22.84;44.22;102036.44;5093922;28;20228;-65
2022/07/02 00:19:58;;;;;;;2.03;1.83;;;20.10;58.20;;;22.89;43.96;102038.47;5095639;28;20189;-64
2022/07/02 00:22:28;;;;;;;2.27;1.73;;;20.20;57.80;;;22.94;44.18;102032.44;5094727;28;20220;-64
2022/07/02 00:24:56;;;;;;;3.23;2.70;;;20.20;57.70;;;22.96;43.85;102027.66;5095543;28;20220;-64
2022/07/02 00:27:28;;;;;;;2.97;2.60;;;20.30;57.40;;;22.92;43.74;102028.09;5095227;28;20197;-65
2022/07/02 00:29:59;;;;;;;4.60;2.00;;;20.30;57.10;;;22.90;43.67;102035.56;5095100;28;20258;-65
2022/07/02 00:32:31;;;;;;;2.93;2.07;;;20.30;57.10;;;22.86;43.50;102029.00;5095389;28;20701;-64
2022/07/02 00:35:07;;;;;;;4.07;2.40;;;20.30;56.90;;;22.73;43.45;102022.94;5095733;28;20256;-64
2022/07/02 00:37:37;;;;;;;2.43;2.23;;;20.20;56.50;;;22.62;43.80;102026.34;5096524;28;20193;-64
2022/07/02 00:40:07;;;;;;;4.70;2.20;;;20.20;56.60;;;22.55;44.21;102026.41;5095913;28;20638;-63
2022/07/02 00:42:36;;;;;;;3.53;2.20;;;20.10;57.20;;;22.56;44.26;102028.03;5095556;28;20693;-63
2022/07/02 00:45:05;;;;;;;4.77;2.43;;;20.10;57.20;;;22.54;43.95;102034.66;5093961;28;20212;-64
2022/07/02 00:47:35;;;;;;;2.40;2.03;;;20.00;57.20;;;22.52;43.81;102034.88;5096246;28;20534;-64
2022/07/02 00:50:06;;;;;;;3.43;2.17;;;19.90;56.90;;;22.48;44.37;102040.91;5095789;28;20193;-64
2022/07/02 00:52:34;;;;;;;5.57;3.27;;;19.90;57.50;;;22.41;44.29;102040.16;5095490;28;20212;-65
2022/07/02 00:55:02;;;;;;;3.27;2.23;;;19.90;57.50;;;22.30;44.48;102039.00;5096377;28;20188;-65
2022/07/02 00:57:33;;;;;;;3.57;2.67;;;19.80;57.30;;;22.25;44.27;102025.41;5096190;28;20191;-64
2022/07/02 01:00:01;;;;;;;2.57;1.90;;;19.80;57.40;;;22.23;44.53;102030.19;5095255;28;20681;-64
2022/07/02 01:02:31;;;;;;;4.27;2.50;;;19.70;57.40;;;22.23;44.65;102038.25;5095218;28;20216;-64
2022/07/02 01:05:00;;;;;;;6.33;2.70;;;19.70;57.40;;;22.24;44.53;102031.84;5095862;28;20340;-64
2022/07/02 01:07:30;;;;;;;6.07;2.90;;;19.70;57.70;;;22.22;44.55;102034.75;5095862;28;20638;-64
2022/07/02 01:10:16;;;;;;;4.63;2.80;;;19.70;57.80;;;22.20;44.33;102038.69;5095948;28;20488;-64
2022/07/02 01:12:47;;;;;;;5.53;2.73;;;19.70;57.60;;;22.17;44.57;102036.44;5095012;28;20555;-64
2022/07/02 01:15:15;;;;;;;4.03;2.27;;;19.60;57.90;;;22.15;44.77;102031.31;5095209;28;20197;-63
2022/07/02 01:17:43;;;;;;;6.70;3.13;;;19.60;58.10;;;22.16;44.95;102035.63;5094791;28;20200;-64
2022/07/02 01:20:11;;;;;;;4.17;2.47;;;19.60;58.20;;;22.12;44.63;102025.53;5094836;28;20189;-63
2022/07/02 01:22:44;;;;;;;3.63;2.67;;;19.60;57.90;;;22.00;44.98;102028.13;5094801;28;20227;-64
2022/07/02 01:25:11;;;;;;;4.60;3.03;;;19.50;57.70;;;21.88;44.89;102027.19;5095133;28;20299;-64
2022/07/02 01:27:39;;;;;;;3.17;2.70;;;19.40;57.90;;;21.79;45.13;102019.59;5094657;28;20193;-65
2022/07/02 01:30:08;;;;;;;5.47;2.77;;;19.40;58.30;;;21.71;45.22;102022.50;5094273;28;20276;-65
2022/07/02 01:32:36;;;;;;;3.87;2.77;;;19.30;58.10;;;21.65;45.37;102023.38;5093817;28;20205;-64
2022/07/02 01:35:08;;;;;;;3.77;2.80;;;19.20;58.40;;;21.62;45.43;102029.16;5094010;28;20193;-63
2022/07/02 01:37:40;;;;;;;3.77;2.87;;;19.10;58.80;;;21.52;46.16;102022.44;5093291;28;20643;-63
2022/07/02 01:40:09;;;;;;;2.80;2.60;;;19.10;59.00;;;21.45;46.21;102027.00;5094545;28;20196;-64
2022/07/02 01:42:37;;;;;;;2.77;2.57;;;19.00;58.90;;;21.38;46.04;102023.53;5093934;28;20646;-63
2022/07/02 01:45:05;;;;;;;3.23;2.93;;;19.00;59.20;;;21.32;46.36;102027.06;5094631;28;20193;-65
2022/07/02 01:47:33;;;;;;;4.93;2.80;;;18.80;59.50;;;21.22;47.17;102031.25;5094774;28;20195;-64
2022/07/02 01:50:00;;;;;;;4.93;3.13;;;18.80;59.80;;;21.14;46.76;102037.66;5094653;28;20647;-64
2022/07/02 01:52:27;;;;;;;3.83;3.30;;;18.70;59.90;;;21.05;46.91;102030.91;5094588;28;20216;-64
2022/07/02 01:54:56;;;;;;;4.87;2.97;;;18.60;60.00;;;20.97;47.46;102036.44;5094889;28;20676;-64
2022/07/02 01:57:24;;;;;;;3.93;3.27;;;18.60;60.30;;;20.88;47.33;102045.75;5094853;28;20193;-64
2022/07/02 01:59:51;;;;;;;3.40;2.80;;;18.50;60.60;;;20.84;47.90;102055.22;5094628;28;20541;-64
2022/07/02 02:02:18;;;;;;;4.20;3.00;;;18.50;60.70;;;20.78;47.62;102058.72;5094094;28;20304;-65
2022/07/02 02:04:46;;;;;;;4.90;3.00;;;18.40;61.00;;;20.72;48.07;102054.22;5094695;28;20185;-64
2022/07/02 02:07:13;;;;;;;4.03;3.27;;;18.30;61.40;;;20.65;48.54;102059.59;5093455;28;20184;-65
2022/07/02 02:09:41;;;;;;;5.57;3.03;;;18.30;61.80;;;20.62;48.33;102060.00;5093728;28;20196;-65
2022/07/02 02:12:10;;;;;;;6.53;3.00;;;18.20;61.70;;;20.56;48.97;102057.34;5094434;28;20211;-64
2022/07/02 02:14:38;;;;;;;5.07;3.60;;;18.10;62.70;;;20.47;48.87;102063.91;5094981;28;20197;-64
2022/07/02 02:17:06;;;;;;;4.93;2.73;;;18.10;63.10;;;20.38;48.63;102051.78;5094816;28;20223;-64
2022/07/02 02:19:33;;;;;;;3.53;3.23;;;18.00;62.10;;;20.33;49.07;102059.59;5094706;28;20189;-63
2022/07/02 02:22:01;;;;;;;3.83;3.53;;;17.90;62.40;;;20.28;48.98;102048.72;5093982;28;20219;-64
2022/07/02 02:24:28;;;;;;;5.23;2.90;;;17.90;62.90;;;20.25;49.27;102052.63;5093059;28;20192;-64
2022/07/02 02:26:56;;;;;;;3.70;3.30;;;17.80;63.00;;;20.20;49.54;102058.56;5094533;28;20185;-64
2022/07/02 02:29:25;;;;;;;3.33;2.60;;;17.80;63.20;;;20.10;49.72;102055.47;5094772;28;20200;-64
2022/07/02 02:31:52;;;;;;;5.13;3.13;;;17.70;63.40;;;20.01;49.91;102054.03;5093841;28;20207;-64
2022/07/02 02:34:21;;;;;;;3.97;3.10;;;17.60;63.50;;;19.92;50.01;102055.22;5094116;28;20193;-64
2022/07/02 02:36:48;;;;;;;4.67;3.07;;;17.60;63.80;;;19.89;50.04;102052.16;5094613;28;20184;-64
2022/07/02 02:39:16;;;;;;;4.07;3.33;;;17.50;64.00;;;19.85;50.15;102056.25;5094095;28;20193;-64
2022/07/02 02:41:43;;;;;;;3.77;3.37;;;17.40;64.20;;;19.81;50.39;102052.31;5093479;28;20287;-64
2022/07/02 02:44:10;;;;;;;4.40;3.50;;;17.40;64.40;;;19.78;50.50;102048.19;5096024;28;20198;-64
2022/07/02 02:46:39;;;;;;;4.90;2.90;;;17.30;64.40;;;19.76;50.22;102047.59;5094010;28;20544;-64
2022/07/02 02:49:06;;;;;;;5.17;3.60;;;17.30;64.60;;;19.73;50.65;102047.97;5094217;28;20188;-65
2022/07/02 02:51:34;;;;;;;3.83;3.50;;;17.30;64.90;;;19.71;50.44;102062.56;5093846;28;20216;-64
2022/07/02 02:54:01;;;;;;;3.97;3.47;;;17.30;65.00;;;19.67;50.41;102075.53;5094411;28;20188;-62
2022/07/02 02:56:29;;;;;;;3.63;3.33;;;17.20;64.90;;;19.63;50.68;102068.94;5093967;28;20196;-63
2022/07/02 02:58:56;;;;;;;4.33;3.20;;;17.20;65.00;;;19.61;50.95;102073.66;5093637;28;20561;-63
2022/07/02 03:01:23;;;;;;;4.77;3.40;;;17.20;65.20;;;19.60;50.97;102072.00;5092989;28;20253;-65
2022/07/02 03:03:52;;;;;;;3.30;2.90;;;17.10;65.10;;;19.60;50.48;102072.00;5093662;28;20253;-65
2022/07/02 03:06:20;;;;;;;4.77;3.20;;;17.10;65.20;;;19.58;51.03;102068.72;5093836;28;20261;-65
2022/07/02 03:08:47;;;;;;;7.53;4.10;;;17.10;65.60;;;19.56;51.26;102070.78;5092490;28;20235;-64
2022/07/02 03:11:14;;;;;;;5.37;3.60;;;17.10;65.60;;;19.56;50.91;102074.25;5092971;28;20299;-65
2022/07/02 03:13:42;;;;;;;3.97;3.33;;;17.10;65.80;;;19.56;50.96;102076.13;5092912;28;20203;-64
2022/07/02 03:16:09;;;;;;;5.30;3.10;;;17.10;65.70;;;19.56;51.14;102084.94;5093638;28;20639;-64
2022/07/02 03:18:37;;;;;;;3.57;3.27;;;17.10;65.70;;;19.58;50.98;102082.91;5093661;28;20275;-64
2022/07/02 03:21:05;;;;;;;4.40;3.27;;;17.10;65.80;;;19.61;50.97;102086.19;5092999;28;20537;-64
2022/07/02 03:23:33;;;;;;;4.90;3.40;;;17.10;65.60;;;19.63;50.73;102084.97;5093588;28;20200;-63
2022/07/02 03:26:00;;;;;;;4.90;3.40;;;17.10;65.60;;;19.64;51.19;102086.59;5093933;28;20491;-64
2022/07/02 03:28:27;;;;;;;3.20;2.90;;;17.10;65.80;;;19.63;50.80;102082.31;5093312;28;20192;-64
2022/07/02 03:30:55;;;;;;;7.77;3.43;;;17.10;65.70;;;19.65;50.67;102080.25;5091954;28;20192;-64
2022/07/02 03:33:22;;;;;;;6.53;3.20;;;17.10;65.80;;;19.67;50.90;102086.22;5092904;28;20228;-64
2022/07/02 03:35:50;;;;;;;4.13;3.10;;;17.10;65.70;;;19.70;50.47;102085.00;5093531;28;20189;-64
2022/07/02 03:38:19;;;;;;;4.47;3.33;;;17.20;65.70;;;19.71;50.75;102087.44;5093707;28;20218;-63
2022/07/02 03:40:46;;;;;;;4.23;3.40;;;17.10;65.60;;;19.70;50.77;102083.16;5092694;28;20203;-63
2022/07/02 03:43:13;;;;;;;3.73;3.10;;;17.20;65.60;;;19.71;50.54;102100.81;5093158;28;20627;-64
2022/07/02 03:45:41;;;;;;;6.33;3.63;;;17.20;65.70;;;19.73;50.94;102096.06;5092591;28;20189;-65
2022/07/02 03:48:08;;;;;;;6.30;3.27;;;17.20;65.50;;;19.73;50.43;102098.75;5093460;28;20189;-64
2022/07/02 03:50:38;;;;;;;4.13;3.63;;;17.20;65.50;;;19.73;50.74;102096.06;5092558;28;20185;-64
2022/07/02 03:53:05;;;;;;;6.27;3.10;;;17.20;65.60;;;19.71;50.48;102098.13;5097707;28;20622;-65
2022/07/02 03:55:34;;;;;;;5.20;3.40;;;17.20;65.60;;;19.70;50.91;102095.69;5097092;28;20188;-65
2022/07/02 03:58:02;;;;;;;7.03;3.33;;;17.10;65.70;;;19.71;51.00;102097.31;5097200;28;20271;-64
2022/07/02 04:00:29;;;;;;;3.20;2.90;;;17.10;65.70;;;19.73;51.13;102109.44;5097085;28;20565;-64
2022/07/02 04:02:56;;;;;;;4.13;3.17;;;17.20;66.00;;;19.73;50.84;102112.13;5095833;28;20216;-65
2022/07/02 04:05:24;;;;;;;5.13;3.10;;;17.20;66.00;;;19.70;51.09;102104.53;5097786;28;20196;-64
2022/07/02 04:07:51;;;;;;;4.60;3.50;;;17.20;66.10;;;19.66;51.27;102105.13;5096734;28;20188;-64
2022/07/02 04:10:19;;;;;;;4.13;3.73;;;17.10;66.10;;;19.62;51.27;102112.69;5096777;28;20188;-64
2022/07/02 04:12:48;;;;;;;4.23;3.67;;;17.10;66.20;;;19.58;51.38;102119.47;5096729;28;20666;-64
2022/07/02 04:15:16;;;;;;;5.40;3.50;;;17.10;66.50;;;19.57;51.25;102112.47;5097055;28;20642;-64
2022/07/02 04:17:43;;;;;;;4.67;3.90;;;17.10;66.60;;;19.59;51.38;102115.75;5096722;28;20188;-64
2022/07/02 04:20:11;;;;;;;6.67;3.57;;;17.10;66.50;;;19.62;51.26;102114.53;5095830;28;20203;-64
2022/07/02 04:22:39;;;;;;;3.73;3.43;;;17.10;66.70;;;19.64;51.31;102112.50;5096050;28;20220;-64
2022/07/02 04:25:07;;;;;;;5.07;3.53;;;17.10;66.60;;;19.66;51.53;102116.63;5096527;28;20189;-64
2022/07/02 04:27:35;;;;;;;5.80;3.80;;;17.10;66.90;;;19.68;51.35;102119.94;5096817;28;20199;-64
2022/07/02 04:30:05;;;;;;;5.57;3.60;;;17.10;66.60;;;19.70;51.09;102125.91;5096737;28;20193;-64
2022/07/02 04:32:36;;;;;;;6.77;4.03;;;17.10;66.50;;;19.70;51.42;102117.88;5096474;28;20311;-64
2022/07/02 04:35:05;;;;;;;5.33;3.70;;;17.20;66.50;;;19.72;51.26;102126.50;5094362;28;20274;-64
2022/07/02 04:37:32;;;;;;;4.40;4.00;;;17.20;66.60;;;19.73;51.14;102130.00;5096400;28;20702;-64
2022/07/02 04:40:00;;;;;;;3.57;3.27;;;17.20;66.50;;;19.73;51.05;102122.81;5096488;28;20188;-64
2022/07/02 04:42:27;;;;;;;5.00;3.63;;;17.20;66.70;;;19.74;51.21;102131.66;5095836;28;20262;-64
2022/07/02 04:44:55;;;;;;;4.60;3.20;;;17.20;66.60;;;19.75;51.25;102128.78;5097037;28;20200;-64
2022/07/02 04:47:23;;;;;;;4.40;3.30;;;17.20;66.50;;;19.82;51.15;102132.31;5096680;28;20188;-64
2022/07/02 04:49:51;;;;;;;4.33;3.40;;;17.20;66.50;;;19.86;51.24;102138.06;5096067;28;20565;-64
2022/07/02 04:52:18;;;;;;;6.07;3.93;;;17.30;66.70;;;19.87;50.82;102129.84;5094822;28;20674;-64
2022/07/02 04:54:45;;;;;;;4.90;3.30;;;17.30;66.50;;;19.92;50.92;102138.06;5095044;28;20195;-64
2022/07/02 04:57:13;;;;;;;4.30;3.27;;;17.40;66.40;;;19.97;51.08;102140.13;5096101;28;20185;-63
2022/07/02 04:59:44;;;;;;;4.87;3.17;;;17.40;66.40;;;20.01;50.76;102141.41;5096317;28;20207;-64
2022/07/02 05:02:11;;;;;;;3.83;3.40;;;17.40;66.20;;;20.08;50.77;102139.56;5095316;28;20217;-64
2022/07/02 05:04:40;;;;;;;6.83;3.50;;;17.50;66.40;;;20.15;50.83;102141.25;5095979;28;20191;-64
2022/07/02 05:07:08;;;;;;;7.53;3.60;;;17.50;66.10;;;20.17;50.62;102141.84;5096141;28;20230;-63
2022/07/02 05:09:36;;;;;;;4.17;3.63;;;17.60;66.00;;;20.27;50.19;102146.00;5095237;28;20216;-64
2022/07/02 05:12:04;;;;;;;8.97;3.57;;;17.60;66.80;;;20.31;50.29;102136.53;5095175;28;20212;-64
2022/07/02 05:14:32;;;;;;;6.17;3.10;;;17.70;66.10;;;20.37;49.99;102143.78;5095897;28;20196;-64
2022/07/02 05:16:59;;;;;;;3.70;3.23;;;17.70;65.80;;;20.46;49.83;102145.22;5095599;28;20191;-64
2022/07/02 05:19:27;;;;;;;5.57;3.33;;;17.80;65.70;;;20.52;50.04;102152.41;5095681;28;20192;-64
2022/07/02 05:21:55;;;;;;;3.73;2.97;;;17.80;65.50;;;20.61;49.47;102152.00;5095141;28;20211;-64
2022/07/02 05:24:23;;;;;;;5.97;3.90;;;17.90;65.60;;;20.71;49.50;102154.25;5095672;28;20195;-63
2022/07/02 05:26:50;;;;;;;3.33;2.93;;;18.00;65.70;;;20.73;49.89;102149.53;5094518;28;20203;-64
2022/07/02 05:29:17;;;;;;;5.00;3.30;;;18.10;65.30;;;20.80;49.19;102153.03;5095275;28;20538;-64
2022/07/02 05:31:45;;;;;;;6.40;3.30;;;18.10;65.10;;;20.87;49.55;102159.22;5095299;28;20687;-63
2022/07/02 05:34:13;;;;;;;6.50;3.63;;;18.20;65.10;;;20.86;49.16;102158.38;5095548;28;20192;-64
2022/07/02 05:36:40;;;;;;;5.17;3.43;;;18.20;65.00;;;20.88;49.35;102166.19;5095006;28;20184;-64
2022/07/02 05:39:09;;;;;;;4.90;3.33;;;18.20;64.90;;;20.90;49.21;102169.50;5095442;28;20630;-62
2022/07/02 05:41:36;;;;;;;5.10;3.33;;;18.30;65.00;;;20.90;49.28;102164.13;5094658;28;20401;-64
2022/07/02 05:44:04;;;;;;;5.50;2.73;;;18.30;64.90;;;20.96;49.27;102157.97;5094195;28;20592;-64
2022/07/02 05:46:32;;;;;;;5.17;3.33;;;18.40;65.00;;;20.99;49.37;102154.84;5094371;28;20193;-64
2022/07/02 05:48:59;;;;;;;3.57;3.27;;;18.40;64.80;;;21.10;49.59;102164.97;5095263;28;20246;-65
2022/07/02 05:51:27;;;;;;;5.53;2.90;;;18.50;65.00;;;21.18;49.56;102162.06;5094193;28;20216;-65
2022/07/02 05:54:00;;;;;;;4.50;2.80;;;18.50;64.90;;;21.30;49.29;102162.28;5094709;28;20168;-63
2022/07/02 05:56:29;;;;;;;3.23;2.60;;;18.60;64.80;;;21.38;49.08;102168.22;5094453;28;20185;-64
2022/07/02 05:58:57;;;;;;;5.83;2.73;;;18.70;64.60;;;21.43;48.99;102165.72;5094611;28;20199;-64
2022/07/02 06:01:24;;;;;;;6.07;2.77;;;18.70;64.40;;;21.50;48.58;102171.06;5093953;28;20689;-64
2022/07/02 06:03:51;;;;;;;4.20;2.60;;;18.80;64.20;;;21.53;48.78;102171.47;5095038;28;20523;-63
2022/07/02 06:09:08;;;;;;;5.80;2.73;;;19.00;63.50;;;21.67;48.39;102163.38;5094687;28;20677;-64
2022/07/02 06:11:37;;;;;;;3.03;2.37;;;19.00;63.30;;;21.80;47.84;102171.38;5094297;28;20219;-64
2022/07/02 06:14:04;;;;;;;4.53;2.87;;;19.10;63.40;;;21.92;48.12;102165.13;5093979;28;20507;-64
2022/07/02 06:16:38;;;;;;;6.83;2.97;;;19.20;63.50;;;22.00;47.78;102164.06;5093529;28;20189;-65
2022/07/02 06:19:06;;;;;;;4.63;2.70;;;19.30;63.20;;;22.11;47.72;102164.19;5093767;28;20265;-63
2022/07/02 06:21:35;;;;;;;3.53;2.90;;;19.40;63.40;;;22.20;47.22;102162.09;5093836;28;20235;-64
2022/07/02 06:24:03;;;;;;;5.10;2.83;;;19.50;62.80;;;22.23;46.96;102164.34;5094059;28;20220;-63
2022/07/02 06:26:30;;;;;;;2.73;2.33;;;19.50;62.00;;;22.27;46.96;102170.09;5094567;28;20195;-63
2022/07/02 06:28:59;;;;;;;2.67;2.20;;;19.60;61.90;;;22.33;47.01;102166.53;5094615;28;20192;-64
2022/07/02 06:31:26;;;;;;;2.60;2.07;;;19.70;62.00;;;22.44;46.96;102165.88;5093961;28;20291;-64
2022/07/02 06:33:54;;;;;;;4.87;2.20;;;19.80;62.10;;;22.52;46.37;102176.31;5093420;28;20306;-64
2022/07/02 06:36:24;;;;;;;2.87;2.33;;;19.80;61.40;;;22.56;46.44;102166.81;5094065;28;20189;-64
2022/07/02 06:38:52;;;;;;;5.03;2.23;;;19.90;60.20;;;22.58;45.60;102176.25;5093939;28;20281;-65
2022/07/02 06:44:07;;;;;;;2.73;1.70;;;20.10;60.30;;;22.78;45.51;102176.13;5094358;28;20196;-63
2022/07/02 06:46:35;;;;;;;2.40;1.90;;;20.10;60.30;;;22.96;45.66;102184.25;5094025;28;20196;-62
2022/07/02 06:49:03;;;;;;;4.20;2.13;;;20.20;60.40;;;23.12;45.10;102172.13;5093569;28;20185;-63
2022/07/02 06:51:30;;;;;;;2.33;1.93;;;20.30;59.80;;;23.23;44.23;102180.25;5072925;28;20291;-64
2022/07/02 06:54:01;;;;;;;5.63;1.73;;;20.40;58.70;;;23.30;44.25;102175.63;5074308;28;20196;-64
2022/07/02 06:56:32;;;;;;;7.00;2.00;;;20.50;58.70;;;23.44;44.10;102174.47;5073646;28;20193;-63
2022/07/02 06:58:59;;;;;;;5.03;2.37;;;20.70;58.80;;;23.56;43.58;102179.91;5073758;28;20547;-64
2022/07/02 07:01:28;;;;;;;3.93;1.80;;;20.80;58.20;;;23.63;42.95;102186.03;5073222;28;20205;-64
2022/07/02 07:03:56;;;;;;;3.30;1.80;;;20.90;57.70;;;23.63;42.57;102194.09;5073656;28;20217;-64
2022/07/02 07:06:25;;;;;;;3.40;1.53;;;20.90;56.90;;;23.67;42.92;102187.25;5083920;28;20196;-64
2022/07/02 07:08:53;;;;;;;1.73;1.30;;;21.00;56.70;;;23.81;42.68;102193.28;5094273;28;20194;-64
2022/07/02 07:11:22;;;;;;;3.70;1.80;;;21.10;57.10;;;23.94;42.24;102193.91;5093123;28;20212;-64
2022/07/02 07:13:49;;;;;;;2.53;1.50;;;21.20;56.20;;;24.03;41.56;102192.56;5092935;28;20275;-63
2022/07/02 07:16:17;;;;;;;3.67;1.60;;;21.30;55.80;;;24.07;41.37;102188.41;5093640;28;20647;-65
2022/07/02 07:21:33;;;;;;;2.07;1.60;;;21.40;55.40;;;24.33;41.34;102191.75;5093704;28;20322;-65
2022/07/02 07:24:00;;;;;;;4.40;1.80;;;21.60;55.60;;;24.29;40.79;102195.97;5095187;28;20255;-64
2022/07/02 07:26:28;;;;;;;6.13;1.93;;;21.60;54.50;;;24.31;40.78;102200.09;5093464;28;20195;-63
2022/07/02 07:28:55;;;;;;;4.57;2.20;;;21.70;54.20;;;24.44;40.98;102204.47;5093409;28;20349;-64
2022/07/02 07:31:23;;;;;;;6.77;2.33;;;21.80;54.50;;;24.56;40.66;102203.41;5093056;28;20299;-64
2022/07/02 07:33:54;;;;;;;2.80;2.30;;;21.90;54.00;;;24.62;40.73;102204.38;5093570;28;20185;-64
2022/07/02 07:36:23;;;;;;;4.47;2.27;;;22.00;54.00;;;24.64;40.67;102210.34;5093548;28;20196;-64
2022/07/02 07:38:51;;;;;;;3.73;1.90;;;22.00;53.80;;;24.64;40.30;102205.78;5092139;28;20185;-64
2022/07/02 07:41:21;;;;;;;4.23;2.20;;;22.10;53.40;;;24.60;40.40;102206.47;5092620;28;20235;-64
2022/07/02 07:43:49;;;;;;;6.10;2.27;;;22.10;53.50;;;24.68;40.41;102198.88;5092067;28;20227;-65
2022/07/02 07:46:16;;;;;;;3.30;1.90;;;22.10;53.70;;;24.61;40.60;102208.09;5092521;28;20200;-65
2022/07/02 07:48:44;;;;;;;2.73;2.20;;;22.20;53.30;;;24.71;40.02;102208.38;5091791;28;20626;-65
2022/07/02 07:51:14;;;;;;;3.70;1.77;;;22.30;53.20;;;24.87;39.95;102202.31;5092245;28;20220;-64
2022/07/02 07:53:45;;;;;;;6.10;1.80;;;22.30;53.00;;;25.05;39.01;102212.19;5093048;28;20204;-64
2022/07/02 07:56:17;;;;;;;4.47;2.33;;;22.40;52.60;;;25.04;38.59;102211.34;5091374;28;20188;-64
2022/07/02 07:58:45;;;;;;;3.83;2.60;;;22.40;51.80;;;25.05;38.71;102207.63;5093054;28;20188;-65
2022/07/02 08:01:13;;;;;;;4.97;2.43;;;22.50;51.90;;;25.02;39.24;102213.47;5092441;28;20216;-65
2022/07/02 08:03:41;;;;;;;3.57;2.37;;;22.50;52.60;;;25.02;39.44;102218.88;5093153;28;20209;-65
2022/07/02 08:06:08;;;;;;;4.90;2.37;;;22.60;52.40;;;24.98;38.60;102214.16;5092992;28;20224;-64
2022/07/02 08:08:37;;;;;;;3.93;1.90;;;22.60;51.20;;;25.10;39.02;102215.84;5092473;28;20724;-65
2022/07/02 08:11:07;;;;;;;6.37;2.53;;;22.60;51.60;;;25.25;39.41;102208.06;5092216;28;20212;-64
2022/07/02 08:13:35;;;;;;;4.43;2.23;;;22.70;52.10;;;25.44;39.08;102212.31;5091616;28;20196;-64
2022/07/02 08:16:03;;;;;;;5.03;2.33;;;22.80;52.00;;;25.54;38.38;102226.00;5092586;28;20643;-65
2022/07/02 08:18:32;;;;;;;3.77;1.97;;;22.90;51.50;;;25.76;37.96;102219.97;5092162;28;20203;-65
2022/07/02 08:21:01;;;;;;;5.20;2.00;;;23.10;51.20;;;26.36;36.14;102220.38;5091194;28;20220;-63
2022/07/02 08:23:28;;;;;;;3.93;2.20;;;23.30;49.60;;;27.16;35.20;102210.91;5092418;28;20223;-64
2022/07/02 08:25:58;;;;;;;3.90;1.70;;;23.50;49.10;;;28.31;33.79;102218.06;5092546;28;20196;-64
2022/07/02 08:28:25;;;;;;;6.17;2.03;;;24.00;48.60;;;29.60;31.82;102219.31;5092431;28;20185;-62
2022/07/02 08:30:53;;;;;;;3.43;1.90;;;24.70;47.50;;;30.47;29.38;102211.19;5091676;28;20195;-65
2022/07/02 08:33:20;;;;;;;4.70;1.90;;;25.30;44.50;;;31.05;29.04;102204.34;5092741;28;20193;-64
2022/07/02 08:35:48;;;;;;;3.10;1.83;;;26.00;43.60;;;31.71;27.66;102198.72;5092666;28;20487;-64
2022/07/02 08:38:15;;;;;;;4.47;1.60;;;26.60;42.30;;;32.70;27.64;102211.97;5095314;28;20188;-64
2022/07/02 08:40:44;;;;;;;2.30;1.70;;;27.20;42.20;;;33.19;24.43;102209.03;5096870;28;20188;-64
2022/07/02 08:43:15;;;;;;;3.80;1.60;;;27.70;36.90;;;33.13;24.88;102204.75;5095706;28;20219;-63
2022/07/02 08:45:44;;;;;;;3.63;1.50;;;28.10;36.00;;;33.85;23.70;102206.34;5095452;28;20188;-64
2022/07/02 08:48:12;;;;;;;2.07;1.33;;;28.50;35.20;;;34.72;22.25;102199.25;5096007;28;20281;-64
2022/07/02 08:50:41;;;;;;;3.50;1.57;;;29.00;33.10;;;35.43;22.28;102198.72;5095538;28;20192;-64
2022/07/02 08:53:09;;;;;;;3.47;1.70;;;29.60;33.40;;;36.28;21.11;102198.75;5096311;28;20223;-63
2022/07/02 08:55:37;;;;;;;4.07;1.80;;;30.10;32.80;;;36.46;20.50;102194.25;5095825;28;20185;-64
2022/07/02 08:58:06;;;;;;;3.73;1.93;;;30.40;30.80;;;36.41;20.09;102192.41;5095857;28;20216;-64
2022/07/02 09:00:35;;;;;;;2.23;1.50;;;30.70;29.90;;;36.48;20.52;102186.50;5094943;28;20196;-64
2022/07/02 09:03:05;;;;;;;2.67;1.50;;;30.90;29.30;;;36.87;19.25;102188.50;5094248;28;20197;-64
2022/07/02 09:05:35;;;;;;;3.13;1.50;;;31.20;28.90;;;37.01;18.79;102189.22;5096193;28;20192;-64
2022/07/02 09:08:05;;;;;;;4.07;1.47;;;31.30;28.10;;;36.60;19.61;102194.97;5095348;28;20200;-65
2022/07/02 09:10:34;;;;;;;2.77;1.80;;;31.30;28.10;;;36.45;20.08;102187.09;5095413;28;20289;-63
2022/07/02 09:13:05;;;;;;;3.97;1.80;;;31.40;28.40;;;36.96;20.02;102190.19;5095310;28;20337;-62
2022/07/02 09:15:36;;;;;;;3.03;2.00;;;31.60;28.60;;;37.21;19.60;102186.72;5095356;28;20267;-63
2022/07/02 09:18:04;;;;;;;4.17;1.67;;;31.70;28.20;;;36.98;19.41;102185.19;5095259;28;20526;-65
2022/07/02 09:20:31;;;;;;;3.40;1.80;;;31.90;28.00;;;36.82;19.05;102174.91;5094025;28;20657;-63
2022/07/02 09:22:58;;;;;;;4.10;2.10;;;31.70;27.70;;;37.17;20.05;102185.72;5094779;28;20216;-64
2022/07/02 09:25:30;;;;;;;4.53;1.95;;;31.90;28.30;;;38.06;19.29;102188.00;5095330;28;20192;-63
2022/07/02 09:28:00;;;;;;;2.53;2.10;;;32.10;28.30;;;38.57;18.18;102176.94;5095128;28;20204;-63
2022/07/02 09:30:30;;;;;;;2.38;1.42;;;32.50;27.60;;;38.63;17.37;102179.53;5094496;28;20290;-64
2022/07/02 09:35:46;;;;;;;2.17;1.60;;;32.70;25.00;;;37.97;17.30;102178.94;5094119;28;20196;-62
2022/07/02 09:38:13;;;;;;;2.10;1.57;;;32.50;25.00;;;37.00;17.74;102169.19;5094061;28;20276;-62
2022/07/02 09:40:51;;;;;;;3.03;1.35;;;32.40;24.70;;;35.74;18.12;102166.81;5094569;28;20686;-63
2022/07/02 09:43:28;;;;;;;2.90;1.77;;;32.00;25.10;;;34.50;20.27;102168.97;5094483;28;20181;-64
2022/07/02 09:45:56;;;;;;;2.70;1.33;;;31.50;26.20;;;33.91;21.28;102153.22;5093726;28;20194;-64
2022/07/02 09:48:24;;;;;;;2.63;1.30;;;31.10;27.10;;;33.74;21.57;102155.66;5092855;28;20196;-64
2022/07/02 09:50:53;;;;;;;2.00;1.40;;;30.70;27.90;;;33.41;21.47;102150.06;5093910;28;20562;-64
2022/07/02 09:53:20;;;;;;;3.27;1.67;;;30.30;27.90;;;32.78;21.99;102154.06;5093965;28;20559;-64
2022/07/02 09:55:50;;;;;;;5.50;1.20;;;29.90;28.40;;;32.27;23.53;102150.94;5095461;28;20203;-64
2022/07/02 09:58:24;;;;;;;1.90;1.17;;;29.50;29.00;;;33.10;23.11;102151.53;5095013;28;20207;-64
2022/07/02 10:00:53;;;;;;;2.60;1.20;;;29.30;29.70;;;34.63;21.49;102149.88;5094575;28;20184;-64
2022/07/02 10:03:21;;;;;;;1.80;1.47;;;29.50;30.00;;;35.60;20.31;102154.28;5094515;28;20195;-64
2022/07/02 10:05:54;;;;;;;2.40;1.43;;;29.80;29.10;;;35.14;20.34;102151.66;5095630;28;20292;-63
2022/07/02 10:08:22;;;;;;;5.90;1.20;;;30.20;28.20;;;34.24;20.47;102149.44;5094124;28;20193;-64
2022/07/02 10:10:50;;;;;;;2.33;1.40;;;30.10;27.90;;;33.41;21.53;102151.97;5094502;28;20197;-62
2022/07/02 10:13:19;;;;;;;1.90;1.27;;;29.90;28.20;;;33.29;21.93;102149.69;5095035;28;20781;-64
2022/07/02 10:15:55;;;;;;;4.63;1.30;;;29.80;28.60;;;34.43;21.69;102149.38;5095343;28;20242;-62
2022/07/02 10:18:24;;;;;;;2.67;1.30;;;29.80;29.30;;;36.07;20.39;102136.47;5094969;28;20192;-62
2022/07/02 10:20:56;;;;;;;3.57;2.80;;;30.10;29.50;;;37.60;19.04;102141.06;5094248;28;20212;-63
2022/07/02 10:23:24;;;;;;;2.87;1.60;;;30.70;29.10;;;38.25;17.82;102140.88;5094264;28;20275;-64
2022/07/02 10:25:55;;;;;;;4.55;1.85;;;31.30;27.90;;;38.74;17.10;102147.75;5093233;28;20212;-63
2022/07/02 10:28:24;;;;;;;2.47;1.55;;;31.80;27.20;;;38.41;17.25;102151.06;5093808;28;20216;-63